Time;durP1;ratioP1;P1;durP2;ratioP2;P2;SDS_P1;SDS_P2;PMS_P1;PMS_P2;Temp;Humidity;BMP_temperature;BMP_pressure;BME280_temperature;BME280_humidity;BME280_pressure;Samples;Min_cycle;Max_cycle;Signal;HPM_P1;HPM_P2
2023/12/18 00:02:15;;;;;;;6.60;6.00;;;10.10;99.90;;;;;;5090735;28;20257;-59
2023/12/18 00:04:41;;;;;;;7.10;6.13;;;10.10;99.90;;;;;;5090446;28;20705;-59
2023/12/18 00:07:07;;;;;;;7.37;6.77;;;10.00;99.90;;;;;;5080740;28;20426;-59
2023/12/18 00:09:33;;;;;;;6.17;5.63;;;10.10;99.90;;;;;;5078217;28;20186;-60
2023/12/18 00:11:59;;;;;;;6.23;5.73;;;10.10;99.90;;;;;;5078450;28;20526;-59
2023/12/18 00:14:24;;;;;;;6.37;5.53;;;10.10;99.90;;;;;;5072026;28;20278;-59
2023/12/18 00:16:50;;;;;;;6.20;5.77;;;10.20;99.90;;;;;;5076941;28;20180;-60
2023/12/18 00:19:16;;;;;;;5.67;5.27;;;10.20;99.90;;;;;;5091575;28;20168;-60
2023/12/18 00:21:41;;;;;;;5.80;5.40;;;10.20;99.90;;;;;;5090904;28;20218;-59
2023/12/18 00:24:07;;;;;;;5.70;5.40;;;10.30;99.90;;;;;;5082212;28;20266;-59
2023/12/18 00:26:33;;;;;;;6.00;5.60;;;10.30;99.90;;;;;;5088786;28;20655;-60
2023/12/18 00:28:59;;;;;;;5.60;5.20;;;10.30;99.90;;;;;;5123842;28;20190;-59
2023/12/18 00:31:24;;;;;;;5.43;4.93;;;10.30;99.90;;;;;;5083106;28;20188;-60
2023/12/18 00:33:50;;;;;;;5.60;5.20;;;10.30;99.90;;;;;;5082836;28;20175;-59
2023/12/18 00:36:16;;;;;;;5.87;5.37;;;10.30;99.90;;;;;;5086297;28;20180;-59
2023/12/18 00:38:42;;;;;;;5.80;5.40;;;10.30;99.90;;;;;;5088756;28;20199;-59
2023/12/18 00:41:08;;;;;;;5.60;5.20;;;10.30;99.90;;;;;;5084459;28;20423;-60
2023/12/18 00:43:34;;;;;;;5.27;4.87;;;10.30;99.90;;;;;;5070589;28;20271;-60
2023/12/18 00:46:02;;;;;;;5.27;4.97;;;10.30;99.90;;;;;;5074747;28;20574;-59
2023/12/18 00:48:28;;;;;;;5.53;5.10;;;10.30;99.90;;;;;;5072249;28;20175;-59
2023/12/18 00:50:54;;;;;;;5.40;4.90;;;10.30;99.90;;;;;;5072728;28;20417;-59
2023/12/18 00:53:19;;;;;;;5.87;5.37;;;10.30;99.90;;;;;;5095218;28;20259;-59
2023/12/18 00:55:45;;;;;;;5.20;4.80;;;10.30;99.90;;;;;;5101778;28;20196;-59
2023/12/18 00:58:11;;;;;;;5.93;5.33;;;10.30;99.90;;;;;;5076202;28;20172;-59
2023/12/18 01:00:36;;;;;;;5.60;5.20;;;10.30;99.90;;;;;;5082608;28;20190;-59
2023/12/18 01:03:03;;;;;;;6.73;6.10;;;10.30;99.90;;;;;;5099257;28;20541;-59
2023/12/18 01:05:28;;;;;;;4.87;4.57;;;10.30;99.90;;;;;;5094421;28;20680;-59
2023/12/18 01:07:54;;;;;;;4.93;4.57;;;10.20;99.90;;;;;;5087795;28;20502;-59
2023/12/18 01:10:20;;;;;;;5.33;4.90;;;10.20;99.90;;;;;;5086209;28;20251;-60
2023/12/18 01:12:45;;;;;;;5.80;5.07;;;10.20;99.90;;;;;;5079754;28;20656;-60
2023/12/18 01:15:11;;;;;;;7.10;5.13;;;10.20;99.90;;;;;;5075395;28;20237;-59
2023/12/18 01:17:37;;;;;;;5.00;4.70;;;10.20;99.90;;;;;;5087190;28;20187;-59
2023/12/18 01:20:05;;;;;;;5.50;4.50;;;10.10;99.90;;;;;;5091546;28;20222;-59
2023/12/18 01:22:31;;;;;;;5.73;5.07;;;10.10;99.90;;;;;;5098768;28;20179;-59
2023/12/18 01:24:56;;;;;;;4.60;4.30;;;10.10;99.90;;;;;;5096575;28;20457;-59
2023/12/18 01:27:22;;;;;;;5.00;4.60;;;10.10;99.90;;;;;;5079416;28;20433;-59
2023/12/18 01:29:48;;;;;;;6.20;4.97;;;10.00;99.90;;;;;;5086158;28;20176;-59
2023/12/18 01:32:14;;;;;;;5.30;4.83;;;10.10;99.90;;;;;;5074378;28;20194;-59
2023/12/18 01:34:40;;;;;;;5.00;4.40;;;10.10;99.90;;;;;;5081871;28;20411;-59
2023/12/18 01:37:05;;;;;;;4.70;4.40;;;10.10;99.90;;;;;;5095787;28;20168;-59
2023/12/18 01:39:32;;;;;;;5.00;4.70;;;10.10;99.90;;;;;;5080481;28;20635;-59
2023/12/18 01:41:59;;;;;;;5.63;5.13;;;10.10;99.90;;;;;;5092848;28;20177;-59
2023/12/18 01:44:24;;;;;;;5.37;4.87;;;10.10;99.90;;;;;;5095439;28;20893;-59
2023/12/18 01:46:51;;;;;;;4.83;4.53;;;10.20;99.90;;;;;;5090457;28;20476;-59
2023/12/18 01:49:16;;;;;;;4.93;4.53;;;10.20;99.90;;;;;;5094469;28;20232;-60
2023/12/18 01:51:42;;;;;;;5.57;5.07;;;10.20;99.90;;;;;;5075514;28;20420;-59
2023/12/18 01:54:09;;;;;;;6.17;4.73;;;10.20;99.90;;;;;;5115620;28;20199;-59
2023/12/18 01:56:36;;;;;;;4.87;4.47;;;10.20;99.90;;;;;;5092181;28;20417;-59
2023/12/18 01:59:02;;;;;;;5.60;5.20;;;10.20;99.90;;;;;;5076478;28;20920;-59
2023/12/18 02:01:32;;;;;;;5.03;4.73;;;10.20;99.90;;;;;;5090532;28;20446;-59
2023/12/18 02:03:57;;;;;;;5.27;4.77;;;10.20;99.90;;;;;;5084672;28;20452;-59
2023/12/18 02:06:24;;;;;;;5.87;4.80;;;10.30;99.90;;;;;;5075281;28;20960;-59
2023/12/18 02:08:49;;;;;;;4.90;4.60;;;10.30;99.90;;;;;;5077121;28;20972;-59
2023/12/18 02:11:15;;;;;;;4.80;4.50;;;10.30;99.90;;;;;;5093133;28;20421;-59
2023/12/18 02:13:41;;;;;;;5.30;4.80;;;10.20;99.90;;;;;;5084976;28;20843;-59
2023/12/18 02:16:08;;;;;;;5.40;4.90;;;10.20;99.90;;;;;;5074679;28;20195;-59
2023/12/18 02:18:33;;;;;;;7.50;4.70;;;10.20;99.90;;;;;;5074646;28;20816;-59
2023/12/18 02:20:59;;;;;;;4.47;4.20;;;10.20;99.90;;;;;;5115152;27;20439;-58
2023/12/18 02:23:25;;;;;;;5.23;4.83;;;10.10;99.90;;;;;;5089710;28;20537;-59
2023/12/18 02:25:51;;;;;;;5.00;4.60;;;10.10;99.90;;;;;;5100460;28;20222;-58
2023/12/18 02:28:17;;;;;;;5.27;4.77;;;10.00;99.90;;;;;;5107790;28;20178;-58
2023/12/18 02:30:44;;;;;;;5.30;4.90;;;10.00;99.90;;;;;;5109743;28;20193;-59
2023/12/18 02:33:09;;;;;;;5.13;4.37;;;9.90;99.90;;;;;;5115242;28;20412;-58
2023/12/18 02:35:35;;;;;;;4.97;4.47;;;9.90;99.90;;;;;;5105110;28;20486;-59
2023/12/18 02:38:01;;;;;;;5.67;4.70;;;9.80;99.90;;;;;;5076076;28;20511;-59
2023/12/18 02:40:27;;;;;;;5.23;4.63;;;9.80;99.90;;;;;;5084043;28;20265;-59
2023/12/18 02:42:53;;;;;;;7.80;5.30;;;9.80;99.90;;;;;;5077385;28;20199;-59
2023/12/18 02:45:19;;;;;;;7.03;5.07;;;9.80;99.90;;;;;;5084634;28;21232;-58
2023/12/18 02:47:45;;;;;;;5.40;5.00;;;9.70;99.90;;;;;;5087797;28;20433;-59
2023/12/18 02:50:11;;;;;;;4.90;4.50;;;9.80;99.90;;;;;;5086448;28;20421;-58
2023/12/18 02:52:37;;;;;;;6.13;4.50;;;9.70;99.90;;;;;;5106377;28;20263;-59
2023/12/18 02:55:03;;;;;;;8.70;5.20;;;9.90;99.90;;;;;;5100901;28;20452;-58
2023/12/18 02:57:29;;;;;;;5.33;4.83;;;9.70;99.90;;;;;;5105389;28;20189;-58
2023/12/18 02:59:54;;;;;;;5.30;4.90;;;9.70;99.90;;;;;;5106579;28;20425;-58
2023/12/18 03:02:20;;;;;;;5.83;5.37;;;9.60;99.90;;;;;;5082675;28;20177;-58
2023/12/18 03:04:46;;;;;;;4.57;4.27;;;9.60;99.90;;;;;;5092759;28;20167;-58
2023/12/18 03:07:12;;;;;;;5.23;4.77;;;9.60;99.90;;;;;;5097497;28;20432;-58
2023/12/18 03:09:38;;;;;;;6.47;4.60;;;9.60;99.90;;;;;;5098803;28;20178;-58
2023/12/18 03:12:04;;;;;;;5.40;4.90;;;9.60;99.90;;;;;;5107540;28;20925;-58
2023/12/18 03:14:30;;;;;;;5.23;4.83;;;9.50;99.90;;;;;;5113672;28;20228;-58
2023/12/18 03:16:55;;;;;;;5.37;4.97;;;9.50;99.90;;;;;;5110390;28;20474;-59
2023/12/18 03:19:21;;;;;;;7.53;5.30;;;9.50;99.90;;;;;;5104452;28;20265;-58
2023/12/18 03:21:47;;;;;;;6.57;5.30;;;9.50;99.90;;;;;;5079093;28;20183;-59
2023/12/18 03:24:13;;;;;;;6.17;5.30;;;9.40;99.90;;;;;;5125242;27;20187;-58
2023/12/18 03:26:39;;;;;;;6.57;6.07;;;9.40;99.90;;;;;;5095656;28;20240;-59
2023/12/18 03:29:05;;;;;;;5.10;4.70;;;9.40;99.90;;;;;;5111176;28;20205;-58
2023/12/18 03:31:30;;;;;;;5.30;4.80;;;9.40;99.90;;;;;;5085947;28;20178;-58
2023/12/18 03:33:56;;;;;;;6.63;5.37;;;9.40;99.90;;;;;;5090687;28;20565;-58
2023/12/18 03:36:23;;;;;;;5.13;4.70;;;9.40;99.90;;;;;;5085635;28;20635;-59
2023/12/18 03:38:49;;;;;;;5.30;4.80;;;9.40;99.90;;;;;;5092656;28;20415;-58
2023/12/18 03:41:14;;;;;;;6.50;5.83;;;9.40;99.90;;;;;;5094402;28;20428;-58
2023/12/18 03:43:40;;;;;;;5.57;5.00;;;9.30;99.90;;;;;;5101183;28;20430;-58
2023/12/18 03:46:08;;;;;;;7.63;5.37;;;9.30;99.90;;;;;;5084512;28;20249;-59
2023/12/18 03:48:34;;;;;;;6.50;5.00;;;9.20;99.90;;;;;;5105958;28;20272;-58
2023/12/18 03:51:00;;;;;;;6.10;5.50;;;9.20;99.90;;;;;;5096041;28;20851;-58
2023/12/18 03:53:26;;;;;;;6.83;5.67;;;9.20;99.90;;;;;;5098243;28;20573;-59
2023/12/18 03:55:52;;;;;;;5.53;5.03;;;9.20;99.90;;;;;;5095846;28;20439;-59
2023/12/18 03:58:18;;;;;;;6.50;5.70;;;9.20;99.90;;;;;;5093025;28;20628;-58
2023/12/18 04:00:44;;;;;;;5.43;4.93;;;9.20;99.90;;;;;;5097683;28;20424;-59
2023/12/18 04:03:09;;;;;;;6.30;5.90;;;9.20;99.90;;;;;;5112066;28;20180;-58
2023/12/18 04:05:35;;;;;;;7.03;6.27;;;9.20;99.90;;;;;;5096514;28;20460;-58
2023/12/18 04:08:01;;;;;;;7.00;5.50;;;9.20;99.90;;;;;;5102916;28;20174;-59
2023/12/18 04:10:27;;;;;;;6.00;5.50;;;9.20;99.90;;;;;;5107461;28;20180;-58
2023/12/18 04:12:53;;;;;;;5.93;5.37;;;9.10;99.90;;;;;;5088260;28;20423;-59
2023/12/18 04:15:19;;;;;;;6.10;5.50;;;9.10;99.90;;;;;;5109346;28;20221;-58
2023/12/18 04:17:45;;;;;;;11.17;6.37;;;9.10;99.90;;;;;;5100243;28;20446;-59
2023/12/18 04:20:11;;;;;;;6.63;6.10;;;9.10;99.90;;;;;;5099247;28;20430;-59
2023/12/18 04:22:37;;;;;;;6.43;5.57;;;9.10;99.90;;;;;;5106352;28;20218;-58
2023/12/18 04:25:03;;;;;;;6.57;5.80;;;9.10;99.90;;;;;;5092799;28;20446;-58
2023/12/18 04:27:29;;;;;;;8.00;6.67;;;9.10;99.90;;;;;;5083119;28;20434;-58
2023/12/18 04:29:54;;;;;;;6.57;5.97;;;9.10;99.90;;;;;;5076017;28;20397;-59
2023/12/18 04:32:20;;;;;;;8.77;6.10;;;9.10;99.90;;;;;;5078805;28;20172;-58
2023/12/18 04:34:46;;;;;;;5.80;5.30;;;9.10;99.90;;;;;;5088040;28;20202;-59
2023/12/18 04:37:11;;;;;;;7.90;5.80;;;9.10;99.90;;;;;;5097367;28;20182;-58
2023/12/18 04:39:37;;;;;;;5.93;5.43;;;9.10;99.90;;;;;;5099454;28;20172;-58
2023/12/18 04:42:03;;;;;;;6.57;5.97;;;9.00;99.90;;;;;;5097192;28;20505;-58
2023/12/18 04:44:29;;;;;;;7.13;6.07;;;9.00;99.90;;;;;;5099081;28;20539;-58
2023/12/18 04:46:55;;;;;;;6.33;5.73;;;9.00;99.90;;;;;;5100748;28;20469;-58
2023/12/18 04:49:21;;;;;;;7.73;6.10;;;9.00;99.90;;;;;;5119704;28;20502;-58
2023/12/18 04:51:47;;;;;;;7.50;5.80;;;9.00;99.90;;;;;;5119041;28;20790;-59
2023/12/18 04:54:13;;;;;;;8.27;6.30;;;8.90;99.90;;;;;;5119563;28;20412;-58
2023/12/18 04:56:39;;;;;;;6.33;5.73;;;8.90;99.90;;;;;;5103730;28;20776;-58
2023/12/18 04:59:05;;;;;;;8.87;6.00;;;8.90;99.90;;;;;;5098582;28;20411;-58
2023/12/18 05:01:31;;;;;;;7.60;5.90;;;8.90;99.90;;;;;;5098412;28;21027;-58
2023/12/18 05:03:57;;;;;;;8.03;5.83;;;8.80;99.90;;;;;;5098472;28;20230;-58
2023/12/18 05:06:25;;;;;;;8.13;5.93;;;8.80;99.90;;;;;;5086532;28;20447;-58
2023/12/18 05:08:51;;;;;;;8.20;6.23;;;8.80;99.90;;;;;;5077009;28;20177;-58
2023/12/18 05:11:18;;;;;;;7.20;6.50;;;8.70;99.90;;;;;;5079950;28;20426;-58
2023/12/18 05:13:44;;;;;;;6.57;5.97;;;8.70;99.90;;;;;;5077327;28;20521;-57
2023/12/18 05:16:10;;;;;;;7.00;6.30;;;8.70;99.90;;;;;;5093532;28;20883;-59
2023/12/18 05:18:36;;;;;;;7.40;6.03;;;8.70;99.90;;;;;;5112540;28;20427;-58
2023/12/18 05:21:04;;;;;;;6.73;6.00;;;8.70;99.90;;;;;;5117495;28;20401;-59
2023/12/18 05:23:30;;;;;;;7.00;6.30;;;8.70;99.90;;;;;;5119331;27;20406;-58
2023/12/18 05:25:55;;;;;;;6.80;6.13;;;8.60;99.90;;;;;;5116762;28;20566;-58
2023/12/18 05:28:21;;;;;;;12.67;6.90;;;8.60;99.90;;;;;;5107302;28;20505;-58
2023/12/18 05:30:48;;;;;;;7.70;6.20;;;8.60;99.90;;;;;;5080509;28;20464;-58
2023/12/18 05:33:13;;;;;;;7.23;6.50;;;8.50;99.90;;;;;;5098879;28;20398;-58
2023/12/18 05:35:39;;;;;;;11.43;7.23;;;8.50;99.90;;;;;;5097571;28;20905;-58
2023/12/18 05:38:07;;;;;;;9.27;6.57;;;8.50;99.90;;;;;;5098203;28;20886;-58
2023/12/18 05:40:34;;;;;;;9.37;7.20;;;8.40;99.90;;;;;;5097029;28;20430;-58
2023/12/18 05:42:59;;;;;;;6.50;5.90;;;8.40;99.90;;;;;;5093968;28;21758;-58
2023/12/18 05:45:25;;;;;;;6.67;5.97;;;8.40;99.90;;;;;;5093745;28;20969;-58
2023/12/18 05:47:51;;;;;;;8.17;6.80;;;8.40;99.90;;;;;;5100722;28;20182;-58
2023/12/18 05:50:17;;;;;;;8.07;7.07;;;8.40;99.90;;;;;;5115571;28;20166;-58
2023/12/18 05:52:42;;;;;;;8.00;7.20;;;8.30;99.90;;;;;;5115762;28;20172;-58
2023/12/18 05:55:10;;;;;;;7.77;7.03;;;8.30;99.90;;;;;;5111020;28;20266;-58
2023/12/18 05:57:37;;;;;;;6.80;6.20;;;8.30;99.90;;;;;;5095308;28;20676;-57
2023/12/18 06:00:07;;;;;;;7.87;6.70;;;8.30;99.90;;;;;;5093803;28;20403;-58
2023/12/18 06:02:33;;;;;;;7.50;6.73;;;8.30;99.90;;;;;;5095010;28;20422;-57
2023/12/18 06:04:59;;;;;;;9.80;7.00;;;8.30;99.90;;;;;;5093284;28;20450;-57
2023/12/18 06:07:25;;;;;;;7.57;6.87;;;8.30;99.90;;;;;;5095234;28;20402;-58
2023/12/18 06:09:51;;;;;;;8.60;7.70;;;8.30;99.90;;;;;;5094498;28;20883;-58
2023/12/18 06:12:17;;;;;;;7.53;6.80;;;8.30;99.90;;;;;;5095067;28;20172;-58
2023/12/18 06:14:43;;;;;;;11.40;7.57;;;8.40;99.90;;;;;;5092620;28;20250;-59
2023/12/18 06:17:09;;;;;;;9.73;6.97;;;8.30;99.90;;;;;;5098679;28;20191;-58
2023/12/18 06:19:35;;;;;;;9.90;8.27;;;8.30;99.90;;;;;;5112134;28;20176;-58
2023/12/18 06:22:01;;;;;;;12.00;8.30;;;8.30;99.90;;;;;;5114744;28;20404;-58
2023/12/18 06:24:27;;;;;;;8.10;7.30;;;8.30;99.90;;;;;;5099947;28;20675;-57
2023/12/18 06:26:53;;;;;;;9.17;7.00;;;8.30;99.90;;;;;;5107660;27;20546;-58
2023/12/18 06:29:22;;;;;;;8.17;7.40;;;8.30;99.90;;;;;;5087558;28;20223;-59
2023/12/18 06:31:48;;;;;;;8.00;6.30;;;8.30;99.90;;;;;;5093582;28;20509;-58
2023/12/18 06:34:14;;;;;;;8.67;7.50;;;8.30;99.90;;;;;;5092449;28;20562;-59
2023/12/18 06:36:40;;;;;;;8.97;8.17;;;8.30;99.90;;;;;;5094658;28;20179;-59
2023/12/18 06:39:06;;;;;;;8.43;7.53;;;8.30;99.90;;;;;;5093416;28;20222;-59
2023/12/18 06:41:31;;;;;;;9.47;6.80;;;8.20;99.90;;;;;;5089261;28;20419;-58
2023/12/18 06:43:57;;;;;;;9.00;7.37;;;8.20;99.90;;;;;;5093913;28;20541;-59
2023/12/18 06:46:23;;;;;;;9.57;7.80;;;8.20;99.90;;;;;;5098140;28;20204;-57
2023/12/18 06:48:49;;;;;;;11.00;7.50;;;8.20;99.90;;;;;;5098606;28;20244;-67
2023/12/18 06:51:16;;;;;;;8.70;7.90;;;8.10;99.90;;;;;;5091462;28;20184;-69
2023/12/18 06:53:41;;;;;;;14.97;8.00;;;8.10;99.90;;;;;;5097191;28;20509;-69
2023/12/18 06:56:08;;;;;;;10.40;8.90;;;8.00;99.90;;;;;;5094369;28;20505;-68
2023/12/18 06:58:34;;;;;;;9.03;7.90;;;8.00;99.90;;;;;;5093193;28;20499;-69
2023/12/18 07:01:00;;;;;;;10.43;7.40;;;8.00;99.90;;;;;;5091979;28;20421;-68
2023/12/18 07:03:26;;;;;;;8.80;7.00;;;7.90;99.90;;;;;;5093451;28;20196;-69
2023/12/18 07:05:52;;;;;;;9.80;7.23;;;7.90;99.90;;;;;;5092919;28;20469;-68
2023/12/18 07:08:17;;;;;;;11.83;7.30;;;7.90;99.90;;;;;;5091128;28;20426;-69
2023/12/18 07:10:44;;;;;;;7.83;7.00;;;7.90;99.90;;;;;;5094367;28;20620;-68
2023/12/18 07:13:09;;;;;;;9.50;7.57;;;7.90;99.90;;;;;;5092270;28;20184;-69
2023/12/18 07:15:35;;;;;;;11.33;8.00;;;7.90;99.90;;;;;;5094954;28;20462;-68
2023/12/18 07:18:01;;;;;;;11.00;8.03;;;8.00;99.90;;;;;;5091784;28;20184;-68
2023/12/18 07:20:26;;;;;;;8.60;7.53;;;8.00;99.90;;;;;;5091718;28;20584;-69
2023/12/18 07:22:52;;;;;;;11.43;7.73;;;8.10;99.90;;;;;;5093235;28;20503;-68
2023/12/18 07:25:18;;;;;;;9.27;8.03;;;8.00;99.90;;;;;;5091925;28;20208;-69
2023/12/18 07:27:44;;;;;;;8.30;7.60;;;8.10;99.90;;;;;;5092822;28;20628;-65
2023/12/18 07:30:11;;;;;;;9.60;7.90;;;8.10;99.90;;;;;;5072060;28;20227;-69
2023/12/18 07:32:37;;;;;;;8.73;7.40;;;8.10;99.90;;;;;;5084256;28;20432;-69
2023/12/18 07:35:04;;;;;;;10.83;8.63;;;8.10;99.90;;;;;;5087042;28;20930;-75
2023/12/18 07:37:31;;;;;;;9.83;8.60;;;8.10;99.90;;;;;;5083926;28;20428;-74
2023/12/18 07:39:58;;;;;;;13.77;9.07;;;8.20;99.90;;;;;;5094165;28;21025;-67
2023/12/18 07:42:25;;;;;;;11.10;9.50;;;8.20;99.90;;;;;;5091674;28;20610;-75
2023/12/18 07:44:51;;;;;;;12.23;9.83;;;8.20;99.90;;;;;;5084096;28;20470;-73
2023/12/18 07:47:17;;;;;;;11.67;9.37;;;8.30;99.90;;;;;;5088680;28;20431;-74
2023/12/18 07:49:43;;;;;;;13.70;9.77;;;8.20;99.90;;;;;;5081689;28;20533;-74
2023/12/18 07:52:08;;;;;;;10.07;9.03;;;8.20;99.90;;;;;;5091590;28;20397;-73
2023/12/18 07:54:34;;;;;;;10.63;9.03;;;8.20;99.90;;;;;;5092819;28;20175;-73
2023/12/18 07:57:02;;;;;;;14.87;9.93;;;8.20;99.90;;;;;;5091323;28;20221;-65
2023/12/18 07:59:29;;;;;;;12.90;9.80;;;8.20;99.90;;;;;;5091454;28;20537;-74
2023/12/18 08:01:55;;;;;;;11.83;9.87;;;8.20;99.90;;;;;;5091502;28;20418;-74
2023/12/18 08:04:21;;;;;;;11.83;10.23;;;8.20;99.90;;;;;;5098111;28;20414;-72
2023/12/18 08:06:53;;;;;;;13.83;11.07;;;8.20;99.90;;;;;;5096472;28;20454;-73
2023/12/18 08:09:19;;;;;;;12.10;10.77;;;8.30;99.90;;;;;;5101732;28;20426;-73
2023/12/18 08:11:44;;;;;;;12.83;10.37;;;8.40;99.90;;;;;;5092299;28;20425;-65
2023/12/18 08:14:10;;;;;;;13.70;12.30;;;8.40;99.90;;;;;;5085584;28;20223;-59
2023/12/18 08:16:36;;;;;;;13.03;11.10;;;8.80;99.90;;;;;;5091505;28;20209;-60
2023/12/18 08:19:02;;;;;;;17.43;14.63;;;9.20;99.90;;;;;;5087973;28;20204;-60
2023/12/18 08:21:27;;;;;;;18.60;13.63;;;9.80;99.90;;;;;;5095900;28;20661;-60
2023/12/18 08:23:53;;;;;;;14.73;12.57;;;10.30;99.90;;;;;;5090858;28;20220;-60
2023/12/18 08:26:19;;;;;;;19.97;12.27;;;10.70;99.90;;;;;;5088901;28;20199;-59
2023/12/18 08:28:45;;;;;;;15.80;11.90;;;11.10;99.90;;;;;;5091485;28;20827;-60
2023/12/18 08:31:11;;;;;;;14.20;12.70;;;11.40;99.90;;;;;;5088985;28;20610;-60
2023/12/18 08:33:41;;;;;;;14.50;13.00;;;11.70;99.90;;;;;;5088975;28;20449;-59
2023/12/18 08:36:06;;;;;;;14.93;12.17;;;11.80;99.90;;;;;;5090071;28;20461;-60
2023/12/18 08:38:32;;;;;;;16.93;13.60;;;12.00;99.90;;;;;;5085303;28;20422;-58
2023/12/18 08:40:59;;;;;;;16.70;11.47;;;12.10;99.90;;;;;;5086605;28;20421;-59
2023/12/18 08:43:24;;;;;;;17.37;13.93;;;11.90;99.80;;;;;;5086184;28;20468;-60
2023/12/18 08:45:50;;;;;;;18.93;12.47;;;11.50;99.70;;;;;;5090191;28;20494;-59
2023/12/18 08:48:16;;;;;;;16.20;13.40;;;11.20;99.90;;;;;;5082543;28;20187;-69
2023/12/18 08:50:43;;;;;;;17.47;13.63;;;10.90;99.90;;;;;;5103904;28;20182;-65
2023/12/18 08:53:08;;;;;;;16.53;14.60;;;10.40;99.90;;;;;;5107975;28;20270;-71
2023/12/18 08:55:38;;;;;;;349.83;208.50;;;9.90;99.90;;;;;;5102436;28;20518;-52
2023/12/18 08:58:09;;;;;;;80.67;50.43;;;9.50;99.90;;;;;;5112292;28;20874;-55
2023/12/18 09:00:35;;;;;;;17.60;13.73;;;9.30;99.90;;;;;;5101804;28;20472;-56
2023/12/18 09:03:02;;;;;;;16.03;13.77;;;9.20;99.90;;;;;;5082866;28;21239;-58
2023/12/18 09:05:29;;;;;;;17.40;13.53;;;9.10;99.90;;;;;;5099047;28;20443;-56
2023/12/18 09:07:54;;;;;;;19.47;13.53;;;9.00;99.90;;;;;;5091764;28;20470;-56
2023/12/18 09:10:23;;;;;;;17.37;13.13;;;9.00;99.90;;;;;;5090764;28;21097;-58
2023/12/18 09:12:51;;;;;;;17.17;13.30;;;8.90;99.90;;;;;;5087838;28;20189;-55
2023/12/18 09:15:17;;;;;;;16.20;12.93;;;8.90;99.90;;;;;;5112731;27;20838;-57
2023/12/18 09:17:43;;;;;;;18.73;13.90;;;8.90;99.90;;;;;;5092331;28;20438;-58
2023/12/18 09:20:09;;;;;;;18.30;12.20;;;8.80;99.90;;;;;;5089671;28;20418;-55
2023/12/18 09:22:36;;;;;;;14.77;12.07;;;8.80;99.90;;;;;;5091240;28;20452;-58
2023/12/18 09:25:03;;;;;;;882.83;491.40;;;8.80;99.90;;;;;;5093898;28;20429;-61
2023/12/18 09:27:29;;;;;;;23.80;17.20;;;8.70;99.90;;;;;;5095418;28;20514;-56
2023/12/18 09:29:54;;;;;;;13.60;11.77;;;8.60;99.90;;;;;;5094291;28;20443;-58
2023/12/18 09:32:20;;;;;;;12.03;10.70;;;8.60;99.90;;;;;;5093384;28;20910;-69
2023/12/18 09:34:46;;;;;;;13.90;12.50;;;8.50;99.90;;;;;;5094316;28;20179;-69
2023/12/18 09:37:12;;;;;;;18.10;13.00;;;8.50;99.90;;;;;;5093015;28;20183;-72
2023/12/18 09:39:41;;;;;;;17.00;13.50;;;8.60;99.90;;;;;;5089517;28;20175;-62
2023/12/18 09:42:09;;;;;;;14.83;13.23;;;8.60;99.90;;;;;;5084941;28;20788;-61
2023/12/18 09:44:35;;;;;;;17.53;12.90;;;8.60;99.90;;;;;;5108535;28;22356;-64
2023/12/18 09:47:02;;;;;;;16.20;11.93;;;8.60;99.90;;;;;;5096455;28;20472;-65
2023/12/18 09:49:27;;;;;;;14.37;12.70;;;8.60;99.90;;;;;;5096211;28;22473;-65
2023/12/18 09:51:56;;;;;;;14.60;11.83;;;8.80;99.90;;;;;;5107926;27;20424;-64
2023/12/18 09:54:23;;;;;;;17.33;12.80;;;9.00;99.90;;;;;;5086287;28;20450;-67
2023/12/18 09:56:51;;;;;;;453.87;267.13;;;9.10;99.90;;;;;;5086743;28;20796;-62
2023/12/18 09:59:17;;;;;;;36.33;23.13;;;9.30;99.90;;;;;;5083764;28;20433;-65
2023/12/18 10:01:45;;;;;;;14.57;11.63;;;9.60;99.90;;;;;;5091689;28;20524;-72
2023/12/18 10:04:11;;;;;;;16.47;12.80;;;9.60;99.90;;;;;;5101715;28;20432;-67
2023/12/18 10:06:37;;;;;;;14.87;10.67;;;9.70;99.90;;;;;;5081083;28;20533;-73
2023/12/18 10:09:09;;;;;;;14.30;11.40;;;9.80;99.90;;;;;;5087480;28;20541;-66
2023/12/18 10:11:35;;;;;;;13.10;11.30;;;9.70;99.90;;;;;;5107666;28;20175;-61
2023/12/18 10:14:00;;;;;;;15.13;11.67;;;9.70;99.90;;;;;;5112117;28;20791;-60
2023/12/18 10:16:26;;;;;;;14.67;12.17;;;9.60;99.90;;;;;;5105111;28;20176;-60
2023/12/18 10:18:53;;;;;;;12.60;10.47;;;9.60;99.90;;;;;;5095729;28;20198;-61
2023/12/18 10:21:23;;;;;;;14.60;10.50;;;9.60;99.90;;;;;;5094145;28;20766;-60
2023/12/18 10:23:50;;;;;;;239.37;143.13;;;9.80;99.90;;;;;;5091236;28;20562;-59
2023/12/18 10:26:16;;;;;;;63.37;43.47;;;9.80;99.90;;;;;;5092681;28;20450;-59
2023/12/18 10:28:42;;;;;;;62.70;38.17;;;9.70;99.90;;;;;;5094480;28;20409;-60
2023/12/18 10:31:09;;;;;;;11.97;9.27;;;9.60;99.90;;;;;;5094531;28;20885;-60
2023/12/18 10:33:35;;;;;;;15.90;10.53;;;9.60;99.90;;;;;;5091773;28;20183;-60
2023/12/18 10:36:02;;;;;;;12.53;10.67;;;9.60;99.90;;;;;;5094795;28;20451;-59
2023/12/18 10:38:30;;;;;;;14.23;11.07;;;9.40;99.90;;;;;;5090906;28;20475;-60
2023/12/18 10:41:02;;;;;;;11.50;10.10;;;9.20;99.90;;;;;;5094210;28;20431;-60
2023/12/18 10:43:30;;;;;;;14.07;11.17;;;9.20;99.90;;;;;;5090838;28;20414;-60
2023/12/18 10:45:57;;;;;;;11.47;10.27;;;9.10;99.90;;;;;;5095420;28;20465;-60
2023/12/18 10:48:25;;;;;;;12.17;10.20;;;9.10;99.90;;;;;;5092420;28;20542;-60
2023/12/18 10:50:55;;;;;;;11.60;10.40;;;9.00;99.90;;;;;;5092617;28;20417;-59
2023/12/18 10:53:23;;;;;;;12.30;11.00;;;8.90;99.90;;;;;;5092423;28;20418;-60
2023/12/18 10:55:50;;;;;;;78.30;48.73;;;8.90;99.90;;;;;;5094320;28;20437;-59
2023/12/18 10:58:19;;;;;;;170.23;97.07;;;8.90;99.90;;;;;;5093875;28;20466;-60
2023/12/18 11:00:46;;;;;;;38.53;22.83;;;8.90;99.90;;;;;;5086838;28;20447;-61
2023/12/18 11:03:13;;;;;;;16.40;11.27;;;8.90;99.90;;;;;;5088589;28;20419;-60
2023/12/18 11:05:40;;;;;;;21.13;12.10;;;9.00;99.90;;;;;;5093957;28;20468;-59
2023/12/18 11:08:06;;;;;;;16.20;12.00;;;8.90;99.90;;;;;;5093614;28;20401;-60
2023/12/18 11:10:32;;;;;;;13.93;11.33;;;9.00;99.90;;;;;;5092166;28;20748;-59
2023/12/18 11:13:04;;;;;;;17.47;13.20;;;9.00;99.90;;;;;;5092625;28;20426;-61
2023/12/18 11:15:43;;;;;;;15.60;12.07;;;8.90;99.90;;;;;;5089327;28;20466;-59
2023/12/18 11:18:33;;;;;;;15.67;12.53;;;8.90;99.90;;;;;;5090276;28;20431;-59
2023/12/18 11:20:59;;;;;;;16.23;11.20;;;9.00;99.90;;;;;;5092691;28;20432;-59
2023/12/18 11:23:29;;;;;;;15.07;10.83;;;9.00;99.90;;;;;;5092614;28;20495;-60
2023/12/18 11:25:54;;;;;;;12.30;10.43;;;9.00;99.90;;;;;;5093191;28;20201;-59
2023/12/18 11:28:24;;;;;;;14.07;10.50;;;9.00;99.90;;;;;;5091745;28;20419;-60
2023/12/18 11:30:50;;;;;;;13.10;10.33;;;9.10;99.90;;;;;;5092533;28;20177;-60
2023/12/18 11:33:19;;;;;;;12.23;10.13;;;9.10;99.90;;;;;;5092414;28;20402;-59
2023/12/18 11:35:48;;;;;;;13.17;9.67;;;9.10;99.90;;;;;;5092961;28;20431;-59
2023/12/18 11:38:17;;;;;;;12.03;8.50;;;9.10;99.90;;;;;;5091114;28;20772;-60
2023/12/18 11:40:49;;;;;;;16.23;9.23;;;9.10;99.90;;;;;;5092826;28;20742;-59
2023/12/18 11:43:36;;;;;;;10.53;8.53;;;9.00;99.90;;;;;;5091898;28;20423;-60
2023/12/18 11:46:05;;;;;;;9.43;8.37;;;9.00;99.90;;;;;;5090520;28;20891;-60
2023/12/18 11:48:32;;;;;;;8.60;7.80;;;9.10;99.90;;;;;;5089549;28;20471;-59
2023/12/18 11:50:57;;;;;;;9.17;8.23;;;8.90;99.90;;;;;;5091844;28;20442;-59
2023/12/18 11:53:23;;;;;;;684.80;427.47;;;9.00;99.90;;;;;;5092588;28;20433;-59
2023/12/18 11:55:50;;;;;;;29.27;20.23;;;9.00;99.90;;;;;;5093503;28;20178;-60
2023/12/18 11:58:19;;;;;;;8.03;7.27;;;9.10;99.90;;;;;;5092731;28;20176;-59
2023/12/18 12:00:45;;;;;;;7.80;7.07;;;9.10;99.90;;;;;;5088736;28;20502;-59
2023/12/18 12:03:13;;;;;;;7.23;6.60;;;9.10;99.90;;;;;;5092404;28;20424;-59
2023/12/18 12:05:39;;;;;;;7.37;6.67;;;9.10;99.90;;;;;;5092169;28;20471;-58
2023/12/18 12:08:08;;;;;;;7.43;6.67;;;9.10;99.90;;;;;;5090314;28;20416;-59
2023/12/18 12:10:47;;;;;;;6.60;6.00;;;9.20;99.90;;;;;;5091650;28;20983;-59
2023/12/18 12:13:21;;;;;;;6.10;5.57;;;9.10;99.90;;;;;;5089639;28;20428;-58
2023/12/18 12:16:00;;;;;;;6.70;6.00;;;9.10;99.90;;;;;;5089730;28;20544;-59
2023/12/18 12:18:45;;;;;;;6.80;6.20;;;9.00;99.90;;;;;;5072082;28;20748;-58
2023/12/18 12:21:12;;;;;;;7.03;5.80;;;9.00;99.90;;;;;;5106976;28;20434;-58
2023/12/18 12:23:38;;;;;;;6.33;5.53;;;9.00;99.90;;;;;;5110170;28;20431;-60
2023/12/18 12:26:05;;;;;;;528.07;305.63;;;9.10;99.90;;;;;;5088451;28;20459;-60
2023/12/18 12:28:31;;;;;;;19.53;14.50;;;9.10;99.90;;;;;;5090873;28;20461;-60
2023/12/18 12:30:58;;;;;;;6.87;6.17;;;9.10;99.90;;;;;;5100666;28;20431;-59
2023/12/18 12:33:24;;;;;;;7.33;6.73;;;9.30;99.90;;;;;;5084046;28;20422;-60
2023/12/18 12:35:52;;;;;;;7.20;6.30;;;9.10;99.90;;;;;;5092758;28;20427;-60
2023/12/18 12:38:19;;;;;;;6.23;5.63;;;9.10;99.90;;;;;;5103454;28;20443;-59
2023/12/18 12:40:46;;;;;;;6.10;5.50;;;9.20;99.90;;;;;;5100907;28;20434;-59
2023/12/18 12:43:14;;;;;;;5.57;5.17;;;9.10;99.90;;;;;;5094696;28;20419;-59
2023/12/18 12:45:43;;;;;;;5.90;5.40;;;9.10;99.90;;;;;;5102584;28;20470;-59